createdAt,value
2022-11-21T00:01:52.667Z,1.92
2022-11-21T00:04:22.048Z,1.66
2022-11-21T00:06:52.940Z,1.96
2022-11-21T00:09:22.226Z,1.83
2022-11-21T00:11:53.289Z,1.96
2022-11-21T00:14:22.733Z,1.98
2022-11-21T00:16:57.150Z,1.97
2022-11-21T00:19:26.927Z,2.10
2022-11-21T00:21:55.941Z,2.01
2022-11-21T00:24:25.461Z,1.94
2022-11-21T00:26:54.785Z,1.57
2022-11-21T00:29:24.155Z,1.66
2022-11-21T00:31:55.132Z,1.91
2022-11-21T00:34:24.565Z,2.00
2022-11-21T00:36:53.627Z,1.88
2022-11-21T00:39:23.093Z,1.94
2022-11-21T00:41:52.161Z,1.92
2022-11-21T00:44:21.525Z,1.82
2022-11-21T00:46:50.656Z,1.85
2022-11-21T00:49:21.332Z,1.65
2022-11-21T00:51:50.362Z,1.72
2022-11-21T00:54:19.733Z,1.68
2022-11-21T00:56:48.879Z,1.65
2022-11-21T00:59:18.214Z,1.58
2022-11-21T01:01:47.508Z,1.60
2022-11-21T01:04:17.304Z,1.58
2022-11-21T01:06:47.903Z,1.62
2022-11-21T01:09:17.356Z,1.72
2022-11-21T01:11:46.511Z,1.82
2022-11-21T01:14:15.828Z,1.92
2022-11-21T01:16:44.850Z,2.14
2022-11-21T01:19:14.632Z,1.84
2022-11-21T01:21:43.648Z,1.58
2022-11-21T01:24:14.797Z,1.75
2022-11-21T01:26:43.867Z,1.86
2022-11-21T01:29:13.608Z,2.03
2022-11-21T01:31:42.822Z,1.97
2022-11-21T01:34:12.338Z,1.85
2022-11-21T01:36:41.978Z,1.88
2022-11-21T01:39:14.565Z,1.92
2022-11-21T01:41:45.945Z,1.66
2022-11-21T01:44:21.084Z,1.74
2022-11-21T01:46:51.383Z,1.75
2022-11-21T01:49:23.536Z,1.69
2022-11-21T01:51:56.749Z,1.90
2022-11-21T01:54:34.560Z,1.69
2022-11-21T01:57:08.329Z,1.88
2022-11-21T01:59:42.332Z,1.93
2022-11-21T02:02:13.810Z,1.84
2022-11-21T02:04:45.937Z,1.88
2022-11-21T02:07:17.229Z,1.98
2022-11-21T02:09:52.445Z,2.02
2022-11-21T02:12:28.168Z,2.03
2022-11-21T02:14:58.732Z,1.90
2022-11-21T02:17:30.276Z,1.97
2022-11-21T02:20:01.796Z,1.98
2022-11-21T02:22:41.678Z,2.11
2022-11-21T02:25:16.505Z,2.13
2022-11-21T02:27:46.484Z,2.26
2022-11-21T02:30:16.341Z,2.13
2022-11-21T02:32:47.880Z,2.31
2022-11-21T02:35:20.366Z,2.24
2022-11-21T02:37:53.741Z,2.14
2022-11-21T02:40:28.440Z,2.16
2022-11-21T02:43:03.551Z,1.99
2022-11-21T02:45:37.048Z,2.11
2022-11-21T02:48:06.790Z,1.83
2022-11-21T02:50:37.814Z,1.84
2022-11-21T02:53:08.857Z,1.95
2022-11-21T02:55:40.154Z,2.09
2022-11-21T02:58:09.563Z,2.25
2022-11-21T03:00:41.219Z,2.17
2022-11-21T03:03:10.667Z,2.18
2022-11-21T03:05:41.588Z,2.15
2022-11-21T03:08:11.460Z,1.97
2022-11-21T03:10:42.152Z,1.91
2022-11-21T03:13:11.175Z,2.05
2022-11-21T03:15:40.592Z,1.97
2022-11-21T03:18:09.576Z,1.79
2022-11-21T03:20:38.992Z,1.76
2022-11-21T03:23:08.134Z,1.79
2022-11-21T03:25:37.485Z,1.63
2022-11-21T03:28:07.985Z,1.75
2022-11-21T03:36:01.473Z,1.86
2022-11-21T03:38:30.786Z,1.64
2022-11-21T03:41:04.383Z,1.89
2022-11-21T03:43:35.485Z,1.92
2022-11-21T03:46:04.540Z,1.86
2022-11-21T03:48:33.957Z,1.75
2022-11-21T03:51:02.991Z,1.70
2022-11-21T03:53:32.230Z,1.50
2022-11-21T03:56:01.367Z,1.52
2022-11-21T03:58:30.714Z,1.41
2022-11-21T04:01:01.210Z,1.59
2022-11-21T04:03:30.757Z,1.60
2022-11-21T04:05:59.867Z,1.77
2022-11-21T04:08:29.356Z,1.79
2022-11-21T04:10:58.350Z,1.85
2022-11-21T04:13:27.618Z,1.78
2022-11-21T04:15:56.886Z,1.79
2022-11-21T04:18:27.897Z,1.66
2022-11-21T04:20:59.111Z,1.70
2022-11-21T04:23:29.282Z,1.87
2022-11-21T04:25:58.579Z,1.72
2022-11-21T04:28:28.437Z,1.81
2022-11-21T04:31:00.560Z,1.96
2022-11-21T04:33:31.471Z,1.85
2022-11-21T04:36:00.780Z,1.96
2022-11-21T04:38:30.051Z,2.06
2022-11-21T04:40:59.192Z,1.82
2022-11-21T04:43:28.505Z,1.82
2022-11-21T04:45:57.551Z,1.88
2022-11-21T04:48:26.968Z,1.68
2022-11-21T04:50:57.373Z,1.67
2022-11-21T04:53:26.802Z,1.64
2022-11-21T04:55:56.129Z,1.85
2022-11-21T04:58:25.516Z,1.69
2022-11-21T05:00:54.719Z,1.45
2022-11-21T05:03:24.268Z,1.48
2022-11-21T05:05:53.293Z,1.48
2022-11-21T05:08:24.257Z,1.43
2022-11-21T05:11:10.432Z,1.54
2022-11-21T05:13:39.824Z,1.60
2022-11-21T05:16:08.898Z,1.50
2022-11-21T05:18:38.205Z,1.27
2022-11-21T05:21:07.342Z,1.41
2022-11-21T05:23:38.044Z,1.32
2022-11-21T05:26:07.194Z,1.22
2022-11-21T05:28:36.563Z,1.35
2022-11-21T05:31:05.765Z,1.30
2022-11-21T05:33:35.127Z,1.38
2022-11-21T05:36:04.572Z,1.38
2022-11-21T05:38:33.964Z,1.39
2022-11-21T05:41:04.431Z,1.26
2022-11-21T05:43:50.109Z,1.19
2022-11-21T05:46:20.679Z,1.41
2022-11-21T05:48:51.449Z,1.64
2022-11-21T05:51:21.295Z,1.57
2022-11-21T05:53:50.839Z,1.33
2022-11-21T05:56:21.904Z,1.41
2022-11-21T05:58:51.501Z,1.54
2022-11-21T06:01:41.424Z,1.46
2022-11-21T06:04:10.583Z,1.50
2022-11-21T06:06:39.824Z,1.50
2022-11-21T06:09:09.213Z,1.42
2022-11-21T06:11:39.747Z,1.36
2022-11-21T06:14:09.102Z,1.27
2022-11-21T06:16:38.201Z,1.35
2022-11-21T06:19:07.656Z,1.39
2022-11-21T06:21:37.391Z,1.45
2022-11-21T06:24:08.003Z,1.36
2022-11-21T06:26:38.423Z,1.29
2022-11-21T06:29:08.431Z,1.13
2022-11-21T06:31:37.877Z,1.12
2022-11-21T06:34:07.165Z,1.08
2022-11-21T06:36:36.952Z,1.01
2022-11-21T06:39:06.623Z,1.20
2022-11-21T06:41:36.130Z,1.09
2022-11-21T06:44:07.163Z,1.14
2022-11-21T06:46:36.314Z,1.26
2022-11-21T06:49:05.881Z,1.28
2022-11-21T06:51:34.926Z,1.27
2022-11-21T06:54:04.569Z,1.29
2022-11-21T06:56:34.023Z,0.99
2022-11-21T06:59:03.505Z,1.36
2022-11-21T07:01:33.914Z,1.33
2022-11-21T07:04:03.416Z,1.54
2022-11-21T07:06:32.542Z,1.34
2022-11-21T07:11:51.066Z,1.25
2022-11-21T07:14:19.394Z,1.42
2022-11-21T07:16:49.885Z,1.50
2022-11-21T07:19:19.407Z,1.33
2022-11-21T07:21:48.690Z,1.36
2022-11-21T07:24:18.193Z,1.52
2022-11-21T07:26:47.175Z,1.45
2022-11-21T07:29:16.514Z,1.28
2022-11-21T07:31:45.605Z,1.29
2022-11-21T07:34:16.355Z,1.46
2022-11-21T07:36:45.693Z,1.72
2022-11-21T07:39:15.208Z,1.51
2022-11-21T07:41:44.424Z,1.32
2022-11-21T07:44:13.764Z,1.55
2022-11-21T07:46:42.818Z,1.49
2022-11-21T07:49:12.208Z,1.48
2022-11-21T07:51:42.566Z,1.14
2022-11-21T07:54:12.074Z,1.09
2022-11-21T07:56:41.056Z,1.06
2022-11-21T07:59:10.515Z,1.23
2022-11-21T08:01:44.997Z,1.39
2022-11-21T08:04:14.851Z,1.41
2022-11-21T08:06:45.510Z,1.41
2022-11-21T08:09:15.031Z,1.37
2022-11-21T08:11:44.088Z,1.54
2022-11-21T08:14:13.507Z,1.47
2022-11-21T08:16:42.603Z,1.49
2022-11-21T08:19:11.991Z,1.33
2022-11-21T08:21:41.041Z,1.49
2022-11-21T08:24:14.719Z,1.62
2022-11-21T08:26:43.944Z,1.85
2022-11-21T08:29:15.380Z,1.98
2022-11-21T08:31:45.322Z,2.02
2022-11-21T08:34:14.974Z,2.27
2022-11-21T08:36:43.965Z,2.06
2022-11-21T08:39:14.819Z,2.29
2022-11-21T08:42:01.320Z,2.29
2022-11-21T08:44:31.132Z,2.48
2022-11-21T08:47:00.417Z,2.55
2022-11-21T08:49:30.255Z,2.83
2022-11-21T08:51:59.266Z,2.76
2022-11-21T08:54:30.295Z,2.73
2022-11-21T08:56:59.663Z,2.78
2022-11-21T08:59:28.979Z,2.17
2022-11-21T09:01:58.011Z,2.75
2022-11-21T09:04:27.547Z,2.71
2022-11-21T09:06:56.770Z,2.61
2022-11-21T09:09:26.056Z,2.95
2022-11-21T09:11:56.631Z,2.44
2022-11-21T09:14:43.421Z,2.20
2022-11-21T09:17:32.459Z,2.38
2022-11-21T09:20:01.821Z,2.03
2022-11-21T09:22:30.997Z,2.46
2022-11-21T09:25:00.343Z,2.35
2022-11-21T09:27:31.450Z,1.71
2022-11-21T09:30:00.754Z,1.97
2022-11-21T09:32:29.894Z,1.88
2022-11-21T09:34:59.228Z,1.96
2022-11-21T09:37:28.248Z,1.54
2022-11-21T09:39:57.668Z,1.55
2022-11-21T09:42:49.181Z,1.04
2022-11-21T09:45:24.468Z,1.30
2022-11-21T09:47:54.479Z,1.16
2022-11-21T09:50:30.610Z,1.35
2022-11-21T09:53:04.815Z,0.96
2022-11-21T09:55:43.831Z,1.05
2022-11-21T09:58:26.605Z,1.29
2022-11-21T10:00:56.296Z,0.64
2022-11-21T10:03:30.341Z,1.30
2022-11-21T10:06:04.048Z,1.23
2022-11-21T10:08:42.844Z,1.37
2022-11-21T10:11:20.821Z,1.75
2022-11-21T10:14:07.027Z,1.81
2022-11-21T10:16:45.740Z,2.00
2022-11-21T10:19:48.794Z,2.42
2022-11-21T10:22:51.447Z,3.14
2022-11-21T10:25:27.452Z,3.22
2022-11-21T10:28:03.090Z,3.55
2022-11-21T10:30:34.701Z,4.21
2022-11-21T10:33:05.938Z,5.09
2022-11-21T10:35:42.222Z,6.04
2022-11-21T10:38:22.524Z,6.71
2022-11-21T10:40:56.187Z,7.81
2022-11-21T10:43:51.505Z,7.32
2022-11-21T10:46:22.108Z,4.75
2022-11-21T10:48:58.305Z,4.30
2022-11-21T10:51:43.735Z,4.15
2022-11-21T10:54:32.412Z,3.02
2022-11-21T10:57:07.393Z,2.39
2022-11-21T10:59:36.692Z,2.50
2022-11-21T11:02:25.620Z,2.63
2022-11-21T11:05:20.590Z,4.85
2022-11-21T11:08:03.012Z,7.61
2022-11-21T11:10:33.933Z,8.81
2022-11-21T11:16:18.537Z,6.76
2022-11-21T11:18:57.334Z,6.52
2022-11-21T11:21:28.761Z,8.66
2022-11-21T11:24:21.246Z,7.94
2022-11-21T11:26:58.310Z,10.05
2022-11-21T11:29:30.444Z,8.87
2022-11-21T11:32:04.386Z,7.89
2022-11-21T11:34:42.234Z,7.37
2022-11-21T11:37:18.375Z,8.03
2022-11-21T11:39:55.417Z,9.27
2022-11-21T11:43:04.363Z,11.14
2022-11-21T11:46:06.430Z,8.87
2022-11-21T11:48:56.500Z,8.21
2022-11-21T11:51:36.187Z,9.77
2022-11-21T11:54:13.681Z,8.99
2022-11-21T11:56:47.211Z,9.33
2022-11-21T11:59:21.584Z,7.42
2022-11-21T12:01:57.082Z,5.80
2022-11-21T12:04:31.253Z,6.40
2022-11-21T12:10:02.541Z,4.93
2022-11-21T12:12:37.784Z,4.28
2022-11-21T12:15:31.008Z,3.33
2022-11-21T12:18:13.742Z,3.24
2022-11-21T12:20:54.017Z,2.41
2022-11-21T12:23:26.247Z,1.84
2022-11-21T12:26:05.009Z,1.95
2022-11-21T12:28:47.290Z,1.90
2022-11-21T12:31:23.117Z,2.31
2022-11-21T12:33:58.004Z,2.50
2022-11-21T12:36:35.162Z,2.41
2022-11-21T12:39:36.748Z,1.66
2022-11-21T12:42:30.888Z,1.30
2022-11-21T12:45:19.508Z,1.04
2022-11-21T12:48:30.513Z,1.20
2022-11-21T12:51:34.725Z,1.32
2022-11-21T12:54:33.360Z,1.27
2022-11-21T12:57:11.505Z,1.27
2022-11-21T13:00:04.057Z,1.06
2022-11-21T13:02:47.314Z,0.72
2022-11-21T13:05:26.010Z,0.66
2022-11-21T13:08:00.487Z,0.70
2022-11-21T13:10:30.665Z,0.84
2022-11-21T13:13:06.721Z,1.04
2022-11-21T13:15:44.651Z,0.83
2022-11-21T13:18:21.624Z,1.12
2022-11-21T13:20:52.727Z,1.03
2022-11-21T13:23:38.380Z,1.18
2022-11-21T13:26:41.032Z,1.22
2022-11-21T13:29:12.547Z,0.80
2022-11-21T13:31:42.221Z,0.86
2022-11-21T13:34:38.876Z,0.95
2022-11-21T13:37:08.281Z,0.87
2022-11-21T13:39:39.124Z,0.79
2022-11-21T13:42:33.099Z,0.96
2022-11-21T13:45:38.963Z,1.06
2022-11-21T13:48:42.639Z,0.98
2022-11-21T13:51:23.797Z,0.78
2022-11-21T13:54:28.804Z,0.95
2022-11-21T13:57:22.367Z,1.08
2022-11-21T14:00:31.495Z,0.99
2022-11-21T14:03:36.783Z,0.66
2022-11-21T14:06:32.599Z,0.93
2022-11-21T14:09:39.350Z,0.74
2022-11-21T14:12:22.472Z,0.70
2022-11-21T14:14:56.107Z,0.70
2022-11-21T14:17:36.465Z,0.79
2022-11-21T14:20:16.277Z,0.73
2022-11-21T14:22:54.116Z,0.58
2022-11-21T14:25:27.657Z,0.74
2022-11-21T14:27:58.119Z,0.88
2022-11-21T14:30:35.790Z,1.00
2022-11-21T14:33:26.163Z,0.87
2022-11-21T14:35:58.861Z,0.91
2022-11-21T14:38:30.554Z,0.87
2022-11-21T14:41:25.981Z,0.86
2022-11-21T14:44:17.197Z,1.00
2022-11-21T14:46:47.734Z,1.11
2022-11-21T14:49:26.811Z,0.92
2022-11-21T14:52:02.871Z,0.82
2022-11-21T14:54:34.685Z,1.02
2022-11-21T14:57:07.758Z,1.25
2022-11-21T14:59:41.618Z,1.02
2022-11-21T15:02:17.064Z,0.95
2022-11-21T15:04:49.940Z,1.19
2022-11-21T15:07:30.156Z,1.01
2022-11-21T15:10:27.270Z,1.08
2022-11-21T15:12:59.940Z,1.12
2022-11-21T15:15:34.264Z,1.00
2022-11-21T15:20:59.567Z,1.12
2022-11-21T15:23:30.670Z,1.30
2022-11-21T15:26:01.704Z,1.26
2022-11-21T15:28:31.723Z,1.27
2022-11-21T15:31:18.072Z,1.41
2022-11-21T15:37:05.731Z,1.43
2022-11-21T15:39:35.998Z,1.14
2022-11-21T15:42:37.329Z,1.30
2022-11-21T15:45:25.535Z,1.30
2022-11-21T15:47:56.789Z,1.23
2022-11-21T15:50:26.754Z,1.30
2022-11-21T15:52:57.508Z,1.21
2022-11-21T15:55:29.478Z,1.13
2022-11-21T15:57:59.026Z,1.13
2022-11-21T16:00:28.159Z,1.12
2022-11-21T16:02:57.669Z,1.17
2022-11-21T16:05:26.873Z,0.84
2022-11-21T16:07:57.553Z,0.94
2022-11-21T16:10:28.132Z,0.99
2022-11-21T16:12:57.762Z,1.17
2022-11-21T16:15:26.897Z,0.74
2022-11-21T16:17:56.217Z,1.18
2022-11-21T16:20:25.220Z,1.43
2022-11-21T16:22:54.692Z,1.55
2022-11-21T16:25:25.247Z,1.25
2022-11-21T16:27:54.607Z,1.36
2022-11-21T16:30:23.679Z,1.50
2022-11-21T16:32:55.559Z,1.37
2022-11-21T16:35:25.180Z,1.25
2022-11-21T16:37:54.529Z,1.30
2022-11-21T16:40:25.216Z,1.41
2022-11-21T16:43:07.559Z,1.29
2022-11-21T16:45:36.749Z,0.81
2022-11-21T16:48:06.916Z,0.97
2022-11-21T16:50:36.231Z,0.85
2022-11-21T16:53:05.663Z,1.01
2022-11-21T16:55:36.225Z,1.01
2022-11-21T16:58:06.059Z,0.93
2022-11-21T17:00:35.087Z,1.11
2022-11-21T17:03:04.887Z,0.87
2022-11-21T17:05:33.963Z,0.90
2022-11-21T17:08:03.267Z,0.87
2022-11-21T17:10:34.077Z,0.93
2022-11-21T17:13:05.116Z,0.95
2022-11-21T17:15:34.209Z,0.94
2022-11-21T17:18:03.810Z,0.91
2022-11-21T17:20:32.886Z,1.01
2022-11-21T17:23:02.831Z,1.09
2022-11-21T17:25:33.772Z,1.06
2022-11-21T17:28:06.068Z,1.20
2022-11-21T17:30:35.466Z,1.15
2022-11-21T17:33:04.865Z,1.06
2022-11-21T17:35:33.954Z,0.96
2022-11-21T17:38:03.416Z,0.98
2022-11-21T17:40:32.472Z,0.74
2022-11-21T17:43:01.873Z,0.90
2022-11-21T17:45:32.245Z,1.11
2022-11-21T17:48:01.692Z,1.25
2022-11-21T17:50:30.792Z,1.24
2022-11-21T17:53:00.316Z,1.18
2022-11-21T17:55:29.477Z,1.14
2022-11-21T17:57:59.422Z,1.30
2022-11-21T18:00:28.437Z,1.46
2022-11-21T18:03:00.032Z,1.45
2022-11-21T18:05:30.578Z,1.46
2022-11-21T18:07:59.984Z,1.40
2022-11-21T18:10:42.702Z,1.35
2022-11-21T18:13:13.292Z,1.29
2022-11-21T18:15:42.443Z,1.39
2022-11-21T18:18:13.301Z,1.42
2022-11-21T18:20:42.345Z,1.48
2022-11-21T18:23:11.868Z,1.33
2022-11-21T18:25:41.292Z,1.43
2022-11-21T18:28:10.757Z,1.63
2022-11-21T18:30:39.952Z,1.47
2022-11-21T18:33:10.167Z,1.49
2022-11-21T18:35:44.246Z,1.40
2022-11-21T18:38:40.311Z,1.17
2022-11-21T18:41:06.853Z,1.24
2022-11-21T18:43:36.652Z,1.10
2022-11-21T18:46:06.492Z,1.15
2022-11-21T18:49:00.702Z,1.15
2022-11-21T18:51:28.885Z,1.22
2022-11-21T18:53:59.498Z,1.32
2022-11-21T18:56:29.292Z,1.36
2022-11-21T18:58:59.268Z,1.33
2022-11-21T19:01:30.255Z,1.55
2022-11-21T19:03:59.858Z,1.66
2022-11-21T19:06:30.864Z,1.67
2022-11-21T19:09:00.591Z,1.65
2022-11-21T19:11:31.121Z,1.70
2022-11-21T19:14:01.543Z,1.63
2022-11-21T19:16:34.634Z,1.54
2022-11-21T19:21:58.413Z,1.61
2022-11-21T19:24:27.759Z,1.54
2022-11-21T19:26:57.300Z,1.55
2022-11-21T19:29:26.946Z,1.61
2022-11-21T19:31:56.740Z,1.70
2022-11-21T19:34:26.359Z,1.63
2022-11-21T19:36:55.586Z,1.76
2022-11-21T19:39:26.721Z,1.73
2022-11-21T19:41:56.309Z,1.76
2022-11-21T19:44:25.717Z,1.71
2022-11-21T19:46:54.782Z,1.86
2022-11-21T19:49:24.297Z,1.82
2022-11-21T19:51:53.299Z,1.57
2022-11-21T19:54:22.888Z,1.63
2022-11-21T19:56:53.429Z,1.61
2022-11-21T19:59:23.144Z,1.67
2022-11-21T20:01:53.109Z,1.77
2022-11-21T20:04:22.720Z,1.63
2022-11-21T20:06:51.830Z,1.65
2022-11-21T20:09:22.922Z,1.60
2022-11-21T20:11:54.568Z,1.63
2022-11-21T20:14:24.227Z,1.71
2022-11-21T20:16:54.085Z,1.75
2022-11-21T20:19:26.907Z,1.74
2022-11-21T20:21:56.832Z,1.76
2022-11-21T20:24:26.333Z,1.88
2022-11-21T20:26:56.798Z,1.91
2022-11-21T20:29:26.199Z,1.89
2022-11-21T20:31:59.133Z,1.80
2022-11-21T20:34:28.730Z,1.84
2022-11-21T20:36:59.733Z,1.85
2022-11-21T20:39:32.199Z,1.86
2022-11-21T20:42:02.865Z,1.82
2022-11-21T20:45:25.778Z,1.85
2022-11-21T20:47:21.333Z,1.88
2022-11-21T20:49:50.737Z,1.85
2022-11-21T20:55:10.033Z,1.61
2022-11-21T20:57:40.786Z,1.70
2022-11-21T21:00:12.692Z,1.68
2022-11-21T21:02:41.843Z,1.82
2022-11-21T21:05:11.531Z,1.77
2022-11-21T21:07:40.670Z,1.78
2022-11-21T21:10:11.539Z,1.95
2022-11-21T21:12:48.394Z,1.87
2022-11-21T21:15:18.521Z,1.89
2022-11-21T21:17:47.601Z,1.77
2022-11-21T21:20:19.725Z,1.78
2022-11-21T21:22:48.994Z,1.93
2022-11-21T21:25:18.494Z,1.82
2022-11-21T21:27:51.408Z,1.78
2022-11-21T21:30:21.498Z,1.77
2022-11-21T21:32:50.703Z,1.94
2022-11-21T21:35:20.368Z,1.93
2022-11-21T21:37:49.520Z,1.91
2022-11-21T21:40:18.977Z,1.89
2022-11-21T21:42:49.636Z,1.97
2022-11-21T21:45:19.032Z,1.95
2022-11-21T21:47:48.009Z,1.90
2022-11-21T21:50:17.542Z,1.85
2022-11-21T21:52:46.657Z,1.89
2022-11-21T21:55:16.237Z,1.92
2022-11-21T21:57:51.071Z,1.85
2022-11-21T22:00:23.161Z,1.95
2022-11-21T22:02:52.247Z,1.84
2022-11-21T22:05:21.687Z,1.93
2022-11-21T22:07:50.864Z,2.02
2022-11-21T22:10:20.447Z,1.99
2022-11-21T22:12:49.830Z,2.02
2022-11-21T22:15:19.301Z,1.98
2022-11-21T22:17:49.769Z,1.94
2022-11-21T22:20:19.174Z,1.82
2022-11-21T22:22:48.236Z,1.88
2022-11-21T22:25:17.616Z,1.75
2022-11-21T22:27:46.778Z,1.60
2022-11-21T22:30:16.564Z,1.69
2022-11-21T22:32:45.856Z,1.68
2022-11-21T22:35:16.953Z,1.75
2022-11-21T22:37:45.947Z,1.73
2022-11-21T22:40:15.800Z,1.67
2022-11-21T22:42:44.974Z,1.64
2022-11-21T22:45:14.409Z,1.45
2022-11-21T22:47:47.795Z,1.52
2022-11-21T22:50:19.112Z,1.69
2022-11-21T22:52:48.345Z,1.68
2022-11-21T22:55:17.851Z,1.78
2022-11-21T22:57:47.056Z,1.86
2022-11-21T23:00:18.078Z,1.87
2022-11-21T23:02:47.167Z,1.93
2022-11-21T23:05:18.045Z,1.93
2022-11-21T23:07:47.358Z,1.74
2022-11-21T23:10:17.074Z,1.58
2022-11-21T23:12:46.162Z,1.57
2022-11-21T23:15:15.727Z,1.69
2022-11-21T23:17:49.566Z,1.73
2022-11-21T23:20:22.955Z,1.66
2022-11-21T23:22:52.031Z,1.75
2022-11-21T23:25:21.385Z,1.64
2022-11-21T23:27:50.432Z,1.73
2022-11-21T23:30:19.974Z,1.68
2022-11-21T23:32:49.642Z,1.64
2022-11-21T23:35:19.121Z,1.59
2022-11-21T23:37:49.587Z,1.60
2022-11-21T23:40:19.014Z,1.69
2022-11-21T23:42:48.074Z,1.82
2022-11-21T23:45:17.764Z,1.72
2022-11-21T23:47:46.898Z,1.64
2022-11-21T23:50:16.810Z,1.65
2022-11-21T23:52:46.004Z,1.66
2022-11-21T23:55:17.461Z,1.69
2022-11-21T23:57:49.099Z,1.71
